createdAt,value
2022-12-01T00:02:26.480Z,22.05
2022-12-01T00:04:53.873Z,22.13
2022-12-01T00:07:21.199Z,22.83
2022-12-01T00:10:07.089Z,23.02
2022-12-01T00:12:34.354Z,21.90
2022-12-01T00:15:01.649Z,22.73
2022-12-01T00:17:30.235Z,23.70
2022-12-01T00:19:57.789Z,22.85
2022-12-01T00:22:25.095Z,22.13
2022-12-01T00:24:52.430Z,20.98
2022-12-01T00:27:19.802Z,21.42
2022-12-01T00:29:47.400Z,22.98
2022-12-01T00:32:15.276Z,22.27
2022-12-01T00:34:42.613Z,23.65
2022-12-01T00:37:10.302Z,22.02
2022-12-01T00:39:37.569Z,21.55
2022-12-01T00:42:08.686Z,22.80
2022-12-01T00:44:40.251Z,22.73
2022-12-01T00:47:07.560Z,20.67
2022-12-01T00:49:34.914Z,22.65
2022-12-01T00:52:02.254Z,22.77
2022-12-01T00:54:32.144Z,22.02
2022-12-01T00:57:00.830Z,21.92
2022-12-01T00:59:28.085Z,22.63
2022-12-01T01:01:55.473Z,22.17
2022-12-01T01:04:23.124Z,21.58
2022-12-01T01:06:50.446Z,22.25
2022-12-01T01:09:17.812Z,22.02
2022-12-01T01:11:45.087Z,21.65
2022-12-01T01:14:12.415Z,21.40
2022-12-01T01:16:39.815Z,21.70
2022-12-01T01:19:07.527Z,22.15
2022-12-01T01:21:34.846Z,21.98
2022-12-01T01:24:02.341Z,22.67
2022-12-01T01:26:30.990Z,20.48
2022-12-01T01:28:59.475Z,21.40
2022-12-01T01:31:28.032Z,19.95
2022-12-01T01:33:58.825Z,21.52
2022-12-01T01:36:26.298Z,20.98
2022-12-01T01:38:55.118Z,20.50
2022-12-01T01:41:22.991Z,21.45
2022-12-01T01:43:51.903Z,21.45
2022-12-01T01:46:37.417Z,22.35
2022-12-01T01:49:09.630Z,21.38
2022-12-01T01:51:42.675Z,19.52
2022-12-01T01:54:20.114Z,21.10
2022-12-01T01:56:48.846Z,20.75
2022-12-01T01:59:19.784Z,20.10
2022-12-01T02:01:49.469Z,20.10
2022-12-01T02:04:16.873Z,19.55
2022-12-01T02:06:44.138Z,20.25
2022-12-01T02:09:12.884Z,20.17
2022-12-01T02:11:49.590Z,20.50
2022-12-01T02:14:40.517Z,20.60
2022-12-01T02:17:25.904Z,20.02
2022-12-01T02:19:56.068Z,20.40
2022-12-01T02:22:23.511Z,20.52
2022-12-01T02:25:02.943Z,20.48
2022-12-01T02:27:39.226Z,22.42
2022-12-01T02:30:08.008Z,20.50
2022-12-01T02:32:38.327Z,19.92
2022-12-01T02:35:24.464Z,21.90
2022-12-01T02:37:54.815Z,20.70
2022-12-01T02:40:27.428Z,22.48
2022-12-01T02:43:02.935Z,21.95
2022-12-01T02:45:37.300Z,20.23
2022-12-01T02:48:06.332Z,19.95
2022-12-01T02:50:35.141Z,20.80
2022-12-01T02:53:03.841Z,21.17
2022-12-01T02:55:31.175Z,21.63
2022-12-01T02:57:58.509Z,20.90
2022-12-01T03:00:26.267Z,20.33
2022-12-01T03:03:06.531Z,20.88
2022-12-01T03:05:33.837Z,21.08
2022-12-01T03:08:13.877Z,21.00
2022-12-01T03:10:55.297Z,21.05
2022-12-01T03:13:31.909Z,21.42
2022-12-01T03:16:02.808Z,21.23
2022-12-01T03:18:34.234Z,20.67
2022-12-01T03:21:10.484Z,21.95
2022-12-01T03:23:43.148Z,21.92
2022-12-01T03:26:11.883Z,22.70
2022-12-01T03:28:42.202Z,21.77
2022-12-01T03:31:11.949Z,22.63
2022-12-01T03:33:42.514Z,22.08
2022-12-01T03:36:15.122Z,23.08
2022-12-01T03:38:44.701Z,21.48
2022-12-01T03:41:16.044Z,23.05
2022-12-01T03:43:46.108Z,22.33
2022-12-01T03:46:19.955Z,21.50
2022-12-01T03:48:47.459Z,20.80
2022-12-01T03:51:33.633Z,22.25
2022-12-01T03:54:08.675Z,22.23
2022-12-01T03:56:44.208Z,23.75
2022-12-01T03:59:12.126Z,23.90
2022-12-01T04:01:39.702Z,21.92
2022-12-01T04:04:08.121Z,22.38
2022-12-01T04:06:35.850Z,23.47
2022-12-01T04:09:03.195Z,22.63
2022-12-01T04:11:49.807Z,22.73
2022-12-01T04:14:17.154Z,21.33
2022-12-01T04:16:44.416Z,23.48
2022-12-01T04:19:11.927Z,21.58
2022-12-01T04:21:39.157Z,22.92
2022-12-01T04:24:06.761Z,21.77
2022-12-01T04:26:35.380Z,21.77
2022-12-01T04:29:07.994Z,23.08
2022-12-01T04:31:35.417Z,22.50
2022-12-01T04:34:02.823Z,23.10
2022-12-01T04:36:32.099Z,23.65
2022-12-01T04:38:59.407Z,23.20
2022-12-01T04:41:26.675Z,22.60
2022-12-01T04:43:54.751Z,22.75
2022-12-01T04:46:22.414Z,23.25
2022-12-01T04:48:50.050Z,22.75
2022-12-01T04:51:17.372Z,23.35
2022-12-01T04:53:44.700Z,22.20
2022-12-01T04:56:12.092Z,22.02
2022-12-01T04:58:39.716Z,22.75
2022-12-01T05:01:08.885Z,22.02
2022-12-01T05:03:40.085Z,22.83
2022-12-01T05:06:11.581Z,24.35
2022-12-01T05:08:38.851Z,23.00
2022-12-01T05:11:07.811Z,23.83
2022-12-01T05:13:37.170Z,24.10
2022-12-01T05:16:05.311Z,21.05
2022-12-01T05:18:32.879Z,23.13
2022-12-01T05:21:00.398Z,22.88
2022-12-01T05:23:29.251Z,23.30
2022-12-01T05:25:56.898Z,23.70
2022-12-01T05:28:24.926Z,22.83
2022-12-01T05:30:52.433Z,23.17
2022-12-01T05:33:19.791Z,22.10
2022-12-01T05:35:48.676Z,22.23
2022-12-01T05:38:16.359Z,22.55
2022-12-01T05:40:43.874Z,21.98
2022-12-01T05:43:11.121Z,22.45
2022-12-01T05:45:38.589Z,22.70
2022-12-01T05:48:06.033Z,22.55
2022-12-01T05:50:33.311Z,21.08
2022-12-01T05:53:02.402Z,22.48
2022-12-01T05:55:29.744Z,22.02
2022-12-01T05:57:57.153Z,22.08
2022-12-01T06:00:24.511Z,23.75
2022-12-01T06:02:51.819Z,22.67
2022-12-01T06:05:19.063Z,21.98
2022-12-01T06:07:46.453Z,23.25
2022-12-01T06:10:13.822Z,21.90
2022-12-01T06:12:41.170Z,23.70
2022-12-01T06:15:08.780Z,22.52
2022-12-01T06:17:40.124Z,22.85
2022-12-01T06:20:08.308Z,22.42
2022-12-01T06:22:35.595Z,22.98
2022-12-01T06:25:03.267Z,23.13
2022-12-01T06:27:30.572Z,22.58
2022-12-01T06:29:57.964Z,22.10
2022-12-01T06:32:25.308Z,22.60
2022-12-01T06:34:52.625Z,22.38
2022-12-01T06:37:19.963Z,22.15
2022-12-01T06:39:47.581Z,26.23
2022-12-01T06:42:15.630Z,26.52
2022-12-01T06:44:42.942Z,26.58
2022-12-01T06:47:10.256Z,24.77
2022-12-01T06:49:38.305Z,23.80
2022-12-01T06:52:06.160Z,24.95
2022-12-01T06:54:33.580Z,24.20
2022-12-01T06:57:01.059Z,30.83
2022-12-01T06:59:28.688Z,28.83
2022-12-01T07:01:57.904Z,26.77
2022-12-01T07:04:25.280Z,24.70
2022-12-01T07:06:52.601Z,25.05
2022-12-01T07:09:19.890Z,25.38
2022-12-01T07:11:47.153Z,25.13
2022-12-01T07:14:20.630Z,25.13
2022-12-01T07:16:48.067Z,25.08
2022-12-01T07:19:15.379Z,27.00
2022-12-01T07:21:42.787Z,25.98
2022-12-01T07:24:10.197Z,25.27
2022-12-01T07:26:37.533Z,24.05
2022-12-01T07:29:04.982Z,25.50
2022-12-01T07:31:32.417Z,24.85
2022-12-01T07:33:59.715Z,25.40
2022-12-01T07:36:27.055Z,25.63
2022-12-01T07:38:54.315Z,25.85
2022-12-01T07:41:21.585Z,24.23
2022-12-01T07:43:50.933Z,23.65
2022-12-01T07:46:23.062Z,25.25
2022-12-01T07:48:51.659Z,23.25
2022-12-01T07:51:19.083Z,23.83
2022-12-01T07:53:47.331Z,24.73
2022-12-01T07:56:14.725Z,25.05
2022-12-01T07:58:42.386Z,26.15
2022-12-01T08:01:10.552Z,24.08
2022-12-01T08:03:38.411Z,22.52
2022-12-01T08:06:06.412Z,23.98
2022-12-01T08:08:35.997Z,23.77
2022-12-01T08:11:04.728Z,23.33
2022-12-01T08:13:32.284Z,30.65
2022-12-01T08:15:59.535Z,25.50
2022-12-01T08:18:26.871Z,28.08
2022-12-01T08:20:58.362Z,25.38
2022-12-01T08:23:25.822Z,22.60
2022-12-01T08:25:53.117Z,29.97
2022-12-01T08:28:20.827Z,47.13
2022-12-01T08:30:48.310Z,35.85
2022-12-01T08:33:15.649Z,30.23
2022-12-01T08:35:42.989Z,24.90
2022-12-01T08:38:10.751Z,23.95
2022-12-01T08:40:38.099Z,23.75
2022-12-01T08:43:06.038Z,25.58
2022-12-01T08:45:33.471Z,22.95
2022-12-01T08:48:00.755Z,23.70
2022-12-01T08:50:28.478Z,23.87
2022-12-01T08:52:55.849Z,25.00
2022-12-01T08:55:23.264Z,24.13
2022-12-01T08:57:50.515Z,23.83
2022-12-01T09:00:17.913Z,26.38
2022-12-01T09:02:45.355Z,26.50
2022-12-01T09:05:12.857Z,30.98
2022-12-01T09:07:41.168Z,62.70
2022-12-01T09:10:08.703Z,55.42
2022-12-01T09:12:36.041Z,29.88
2022-12-01T09:15:03.558Z,26.70
2022-12-01T09:17:30.889Z,26.30
2022-12-01T09:19:58.202Z,24.90
2022-12-01T09:22:25.514Z,24.52
2022-12-01T09:24:52.840Z,24.08
2022-12-01T09:27:20.161Z,22.43
2022-12-01T09:29:47.610Z,23.35
2022-12-01T09:32:15.201Z,24.00
2022-12-01T09:34:42.566Z,24.55
2022-12-01T09:37:10.552Z,22.88
2022-12-01T09:39:37.868Z,23.43
2022-12-01T09:42:15.777Z,25.60
2022-12-01T09:44:53.259Z,24.58
2022-12-01T09:47:29.716Z,23.90
2022-12-01T09:50:02.697Z,25.67
2022-12-01T09:52:33.401Z,27.33
2022-12-01T09:55:01.842Z,27.75
2022-12-01T09:57:36.700Z,26.80
2022-12-01T10:00:11.901Z,26.75
2022-12-01T10:02:51.308Z,28.15
2022-12-01T10:05:23.060Z,26.73
2022-12-01T10:07:59.540Z,26.92
2022-12-01T10:10:31.063Z,27.05
2022-12-01T10:12:58.726Z,27.58
2022-12-01T10:15:38.077Z,27.98
2022-12-01T10:18:25.968Z,28.00
2022-12-01T10:21:12.055Z,28.13
2022-12-01T10:23:45.118Z,28.17
2022-12-01T10:26:26.224Z,28.52
2022-12-01T10:28:58.208Z,27.50
2022-12-01T10:31:29.902Z,27.17
2022-12-01T10:33:57.186Z,26.08
2022-12-01T10:36:25.478Z,27.08
2022-12-01T10:38:52.962Z,27.60
2022-12-01T10:41:21.161Z,28.40
2022-12-01T10:43:50.079Z,26.47
2022-12-01T10:46:24.803Z,26.00
2022-12-01T10:48:59.255Z,26.42
2022-12-01T10:51:27.449Z,26.20
2022-12-01T10:54:07.333Z,27.02
2022-12-01T10:56:34.705Z,26.23
2022-12-01T10:59:14.979Z,25.88
2022-12-01T11:01:47.725Z,26.02
2022-12-01T11:04:27.382Z,26.40
2022-12-01T11:06:54.882Z,25.98
2022-12-01T11:09:26.590Z,25.70
2022-12-01T11:11:58.907Z,25.88
2022-12-01T11:14:30.596Z,25.40
2022-12-01T11:16:57.957Z,27.25
2022-12-01T11:19:33.013Z,26.67
2022-12-01T11:22:19.008Z,24.63
2022-12-01T11:24:56.859Z,23.42
2022-12-01T11:27:26.353Z,24.33
2022-12-01T11:29:56.832Z,24.17
2022-12-01T11:32:28.667Z,24.60
2022-12-01T11:35:00.304Z,24.60
2022-12-01T11:37:36.911Z,25.67
2022-12-01T11:40:22.022Z,24.45
2022-12-01T11:42:51.146Z,23.50
2022-12-01T11:45:21.407Z,24.13
2022-12-01T11:48:07.503Z,24.07
2022-12-01T11:50:36.286Z,24.83
2022-12-01T11:53:04.512Z,24.35
2022-12-01T11:55:32.363Z,24.27
2022-12-01T11:58:03.700Z,24.40
2022-12-01T12:00:40.245Z,23.27
2022-12-01T12:03:16.565Z,22.30
2022-12-01T12:05:50.178Z,22.45
2022-12-01T12:08:20.419Z,22.20
2022-12-01T12:11:08.684Z,21.40
2022-12-01T12:13:40.741Z,21.63
2022-12-01T12:16:33.536Z,21.48
2022-12-01T12:19:13.741Z,23.10
2022-12-01T12:21:59.835Z,21.77
2022-12-01T12:24:29.946Z,20.60
2022-12-01T12:27:16.101Z,20.70
2022-12-01T12:29:52.747Z,21.67
2022-12-01T12:32:32.375Z,21.02
2022-12-01T12:35:02.419Z,20.55
2022-12-01T12:37:42.346Z,21.20
2022-12-01T12:40:09.591Z,21.13
2022-12-01T12:43:03.949Z,22.58
2022-12-01T12:45:34.328Z,20.95
2022-12-01T12:48:04.607Z,21.75
2022-12-01T12:50:40.003Z,21.63
2022-12-01T12:53:13.169Z,20.40
2022-12-01T12:55:48.898Z,20.33
2022-12-01T12:58:35.050Z,20.13
2022-12-01T13:01:04.902Z,20.35
2022-12-01T13:03:52.545Z,23.58
2022-12-01T13:06:38.254Z,22.07
2022-12-01T13:09:14.627Z,20.90
2022-12-01T13:11:58.222Z,21.63
2022-12-01T13:14:28.720Z,21.30
2022-12-01T13:16:59.558Z,20.05
2022-12-01T13:19:31.806Z,19.57
2022-12-01T13:22:01.289Z,19.85
2022-12-01T13:24:30.134Z,20.33
2022-12-01T13:27:01.207Z,20.27
2022-12-01T13:29:34.283Z,19.73
2022-12-01T13:32:02.625Z,19.67
2022-12-01T13:34:41.919Z,18.88
2022-12-01T13:37:12.386Z,19.58
2022-12-01T13:39:40.585Z,18.45
2022-12-01T13:42:22.094Z,19.88
2022-12-01T13:45:15.483Z,19.93
2022-12-01T13:47:48.912Z,18.92
2022-12-01T13:50:35.113Z,18.75
2022-12-01T13:53:25.798Z,19.95
2022-12-01T13:56:22.750Z,20.30
2022-12-01T13:58:51.806Z,18.10
2022-12-01T14:01:22.812Z,17.70
2022-12-01T14:03:57.959Z,18.40
2022-12-01T14:06:39.021Z,17.48
2022-12-01T14:09:08.331Z,16.90
2022-12-01T14:11:35.910Z,18.30
2022-12-01T14:14:22.736Z,17.65
2022-12-01T14:16:54.547Z,17.60
2022-12-01T14:19:40.623Z,18.70
2022-12-01T14:22:08.558Z,20.25
2022-12-01T14:24:37.873Z,18.20
2022-12-01T14:27:06.268Z,18.23
2022-12-01T14:29:43.095Z,17.42
2022-12-01T14:32:10.433Z,17.95
2022-12-01T14:34:39.033Z,17.65
2022-12-01T14:37:18.447Z,18.63
2022-12-01T14:39:48.747Z,18.05
2022-12-01T14:42:35.956Z,17.55
2022-12-01T14:45:04.578Z,19.50
2022-12-01T14:47:40.740Z,21.08
2022-12-01T14:50:16.176Z,20.23
2022-12-01T14:53:02.483Z,19.80
2022-12-01T14:55:33.837Z,19.02
2022-12-01T14:58:05.069Z,17.48
2022-12-01T15:00:34.509Z,18.88
2022-12-01T15:03:07.417Z,18.00
2022-12-01T15:05:39.335Z,18.80
2022-12-01T15:08:40.989Z,23.02
2022-12-01T15:11:11.085Z,20.67
2022-12-01T15:13:47.908Z,20.50
2022-12-01T15:16:17.146Z,20.23
2022-12-01T15:18:44.894Z,28.42
2022-12-01T15:21:23.764Z,28.35
2022-12-01T15:23:54.220Z,33.30
2022-12-01T15:26:22.038Z,26.05
2022-12-01T15:28:49.425Z,25.37
2022-12-01T15:31:16.837Z,22.30
2022-12-01T15:33:49.374Z,19.33
2022-12-01T15:36:17.040Z,20.40
2022-12-01T15:38:46.615Z,18.70
2022-12-01T15:41:29.193Z,18.90
2022-12-01T15:43:57.997Z,18.27
2022-12-01T15:46:32.789Z,18.35
2022-12-01T15:49:06.784Z,18.27
2022-12-01T15:51:34.377Z,20.55
2022-12-01T15:54:02.403Z,18.87
2022-12-01T15:56:31.736Z,20.45
2022-12-01T15:59:10.219Z,19.30
2022-12-01T16:01:37.939Z,16.75
2022-12-01T16:04:20.306Z,17.98
2022-12-01T16:06:56.618Z,17.73
2022-12-01T16:09:30.028Z,18.02
2022-12-01T16:12:08.376Z,18.33
2022-12-01T16:14:36.635Z,20.05
2022-12-01T16:17:05.568Z,20.40
2022-12-01T16:19:33.971Z,19.13
2022-12-01T16:22:14.094Z,18.65
2022-12-01T16:24:47.494Z,18.20
2022-12-01T16:27:20.119Z,17.98
2022-12-01T16:29:50.612Z,18.83
2022-12-01T16:32:24.183Z,17.50
2022-12-01T16:34:52.837Z,19.13
2022-12-01T16:37:21.770Z,24.33
2022-12-01T16:39:49.369Z,38.13
2022-12-01T16:42:18.252Z,24.10
2022-12-01T16:44:46.627Z,19.10
2022-12-01T16:47:15.147Z,18.42
2022-12-01T16:49:42.575Z,17.30
2022-12-01T16:54:58.416Z,19.35
2022-12-01T16:57:25.709Z,16.77
2022-12-01T16:59:53.023Z,16.33
2022-12-01T17:02:20.364Z,15.80
2022-12-01T17:04:48.065Z,15.48
2022-12-01T17:07:15.540Z,15.30
2022-12-01T17:09:43.478Z,15.67
2022-12-01T17:12:10.812Z,14.90
2022-12-01T17:14:38.195Z,15.93
2022-12-01T17:17:05.529Z,20.30
2022-12-01T17:19:32.851Z,19.27
2022-12-01T17:22:00.222Z,18.17
2022-12-01T17:24:27.534Z,17.08
2022-12-01T17:26:54.827Z,16.63
2022-12-01T17:29:22.154Z,17.65
2022-12-01T17:31:49.427Z,16.60
2022-12-01T17:34:16.707Z,16.00
2022-12-01T17:36:44.023Z,17.77
2022-12-01T17:39:11.322Z,16.58
2022-12-01T17:41:38.674Z,17.30
2022-12-01T17:44:06.476Z,20.23
2022-12-01T17:46:34.204Z,19.17
2022-12-01T17:49:01.715Z,16.92
2022-12-01T17:51:29.030Z,19.88
2022-12-01T17:53:56.373Z,17.70
2022-12-01T17:56:23.629Z,17.35
2022-12-01T17:58:51.456Z,18.13
2022-12-01T18:01:19.739Z,18.88
2022-12-01T18:03:47.915Z,46.65
2022-12-01T18:06:15.901Z,28.00
2022-12-01T18:08:43.526Z,22.45
2022-12-01T18:11:12.606Z,22.40
2022-12-01T18:13:40.961Z,19.58
2022-12-01T18:16:13.214Z,17.98
2022-12-01T18:18:40.919Z,18.45
2022-12-01T18:21:09.251Z,18.73
2022-12-01T18:23:36.854Z,18.07
2022-12-01T18:26:08.582Z,17.50
2022-12-01T18:28:38.170Z,18.77
2022-12-01T18:31:05.765Z,21.05
2022-12-01T18:33:34.094Z,23.63
2022-12-01T18:36:01.837Z,20.43
2022-12-01T18:38:29.405Z,19.60
2022-12-01T18:40:59.589Z,19.83
2022-12-01T18:43:28.310Z,19.35
2022-12-01T18:45:55.997Z,18.48
2022-12-01T18:48:23.318Z,19.53
2022-12-01T18:51:00.070Z,19.17
2022-12-01T18:53:27.481Z,24.20
2022-12-01T18:55:54.754Z,19.67
2022-12-01T18:58:22.057Z,19.25
2022-12-01T19:00:49.477Z,19.43
2022-12-01T19:03:17.014Z,20.67
2022-12-01T19:05:44.324Z,18.65
2022-12-01T19:08:11.860Z,17.10
2022-12-01T19:10:39.223Z,18.02
2022-12-01T19:13:06.601Z,18.90
2022-12-01T19:15:36.586Z,20.13
2022-12-01T19:18:03.977Z,19.42
2022-12-01T19:20:31.303Z,19.00
2022-12-01T19:22:58.649Z,21.50
2022-12-01T19:25:26.020Z,21.10
2022-12-01T19:27:53.362Z,23.83
2022-12-01T19:30:20.797Z,45.90
2022-12-01T19:32:48.277Z,31.40
2022-12-01T19:35:15.657Z,22.13
2022-12-01T19:37:43.050Z,19.73
2022-12-01T19:40:10.632Z,19.13
2022-12-01T19:42:38.053Z,18.77
2022-12-01T19:45:05.711Z,18.42
2022-12-01T19:47:33.487Z,19.20
2022-12-01T19:50:01.390Z,20.03
2022-12-01T19:52:29.260Z,18.92
2022-12-01T19:54:56.596Z,18.48
2022-12-01T19:57:24.300Z,19.08
2022-12-01T19:59:51.737Z,18.90
2022-12-01T20:02:23.865Z,18.20
2022-12-01T20:04:53.433Z,23.40
2022-12-01T20:07:20.911Z,20.63
2022-12-01T20:09:50.033Z,19.70
2022-12-01T20:12:17.805Z,19.63
2022-12-01T20:14:45.135Z,19.23
2022-12-01T20:17:15.841Z,20.83
2022-12-01T20:19:43.598Z,20.45
2022-12-01T20:22:11.128Z,20.83
2022-12-01T20:24:41.176Z,20.52
2022-12-01T20:27:09.627Z,22.17
2022-12-01T20:29:37.206Z,21.02
2022-12-01T20:32:04.762Z,21.45
2022-12-01T20:34:36.578Z,20.10
2022-12-01T20:37:04.699Z,21.70
2022-12-01T20:39:34.670Z,22.33
2022-12-01T20:42:01.995Z,21.85
2022-12-01T20:44:29.507Z,20.60
2022-12-01T20:46:57.743Z,22.15
2022-12-01T20:49:25.006Z,22.40
2022-12-01T20:51:52.380Z,20.73
2022-12-01T20:54:27.817Z,22.48
2022-12-01T20:56:55.440Z,21.05
2022-12-01T20:59:22.833Z,20.77
2022-12-01T21:01:50.150Z,21.33
2022-12-01T21:04:18.061Z,21.93
2022-12-01T21:06:45.611Z,22.55
2022-12-01T21:09:14.645Z,21.80
2022-12-01T21:12:10.333Z,21.30
2022-12-01T21:14:52.915Z,20.67
2022-12-01T21:17:20.337Z,20.07
2022-12-01T21:20:01.654Z,21.50
2022-12-01T21:22:29.030Z,20.95
2022-12-01T21:25:03.043Z,21.02
2022-12-01T21:27:30.583Z,21.30
2022-12-01T21:29:57.881Z,21.13
2022-12-01T21:32:30.493Z,22.05
2022-12-01T21:35:06.003Z,20.02
2022-12-01T21:37:33.327Z,20.20
2022-12-01T21:40:01.233Z,21.27
2022-12-01T21:42:31.375Z,20.70
2022-12-01T21:44:58.770Z,22.15
2022-12-01T21:47:30.469Z,21.00
2022-12-01T21:49:58.542Z,22.05
2022-12-01T21:52:30.311Z,22.27
2022-12-01T21:55:23.485Z,20.90
2022-12-01T21:57:54.137Z,20.98
2022-12-01T22:00:27.637Z,21.75
2022-12-01T22:03:01.047Z,21.08
2022-12-01T22:05:31.121Z,21.38
2022-12-01T22:08:08.253Z,21.27
2022-12-01T22:10:53.241Z,20.95
2022-12-01T22:13:22.833Z,21.83
2022-12-01T22:15:50.181Z,21.50
2022-12-01T22:18:25.453Z,23.55
2022-12-01T22:20:52.873Z,22.07
2022-12-01T22:23:20.801Z,21.23
2022-12-01T22:25:48.531Z,21.17
2022-12-01T22:28:18.811Z,21.65
2022-12-01T22:30:46.443Z,22.77
2022-12-01T22:33:34.049Z,22.13
2022-12-01T22:36:01.310Z,21.50
2022-12-01T22:38:33.211Z,21.25
2022-12-01T22:41:05.046Z,20.63
2022-12-01T22:43:32.298Z,22.90
2022-12-01T22:45:59.612Z,22.70
2022-12-01T22:48:33.141Z,22.52
2022-12-01T22:51:09.903Z,20.95
2022-12-01T22:53:37.453Z,21.20
2022-12-01T22:56:16.919Z,21.75
2022-12-01T22:58:44.208Z,20.98
2022-12-01T23:01:17.644Z,21.52
2022-12-01T23:03:44.925Z,20.00
2022-12-01T23:06:31.064Z,21.50
2022-12-01T23:08:58.396Z,21.80
2022-12-01T23:11:25.630Z,21.90
2022-12-01T23:13:52.958Z,21.13
2022-12-01T23:16:20.309Z,22.10
2022-12-01T23:18:47.641Z,21.40
2022-12-01T23:21:16.390Z,22.08
2022-12-01T23:23:43.667Z,22.08
2022-12-01T23:26:10.996Z,23.77
2022-12-01T23:28:41.791Z,21.52
2022-12-01T23:31:09.812Z,24.60
2022-12-01T23:33:37.524Z,23.98
2022-12-01T23:36:06.247Z,23.40
2022-12-01T23:38:33.519Z,24.08
2022-12-01T23:41:02.003Z,23.45
2022-12-01T23:43:40.295Z,23.40
2022-12-01T23:46:11.086Z,23.45
2022-12-01T23:48:40.808Z,24.13
2022-12-01T23:51:28.902Z,24.35
2022-12-01T23:53:56.988Z,25.45
2022-12-01T23:56:25.553Z,22.27
2022-12-01T23:58:54.320Z,25.50
